Time;durP1;ratioP1;P1;durP2;ratioP2;P2;SDS_P1;SDS_P2;PMS_P1;PMS_P2;Temp;Humidity;BMP_temperature;BMP_pressure;BME280_temperature;BME280_humidity;BME280_pressure;Samples;Min_cycle;Max_cycle;Signal;HPM_P1;HPM_P2
2022/09/17 00:00:40;;;;;;;9.77;1.40;;;12.40;99.90;;;;;;5051910;28;20430;-75
2022/09/17 00:03:08;;;;;;;10.20;1.65;;;12.40;99.90;;;;;;5070076;28;20403;-75
2022/09/17 00:05:36;;;;;;;10.85;1.52;;;12.40;99.90;;;;;;5051881;28;20404;-77
2022/09/17 00:08:04;;;;;;;11.30;1.65;;;12.40;99.90;;;;;;5069306;28;20481;-76
2022/09/17 00:10:30;;;;;;;10.55;1.75;;;12.40;99.90;;;;;;5069631;28;20441;-76
2022/09/17 00:12:56;;;;;;;8.35;1.15;;;12.40;99.90;;;;;;5051731;28;20435;-76
2022/09/17 00:15:22;;;;;;;8.80;1.13;;;12.30;99.90;;;;;;5069514;28;20944;-76
2022/09/17 00:17:54;;;;;;;11.48;1.30;;;12.30;99.90;;;;;;5069119;28;20395;-76
2022/09/17 00:20:20;;;;;;;8.05;1.63;;;12.20;99.90;;;;;;5050865;28;20777;-76
2022/09/17 00:22:46;;;;;;;10.35;1.30;;;12.20;99.90;;;;;;5069602;28;20399;-76
2022/09/17 00:25:11;;;;;;;13.30;2.25;;;12.20;99.90;;;;;;5069150;28;20403;-76
2022/09/17 00:27:37;;;;;;;10.23;1.60;;;12.10;99.90;;;;;;5069145;28;20465;-76
2022/09/17 00:30:03;;;;;;;12.68;1.98;;;12.10;99.90;;;;;;5069006;28;20435;-76
2022/09/17 00:32:29;;;;;;;8.48;1.30;;;12.10;99.90;;;;;;5068760;28;20479;-76
2022/09/17 00:34:55;;;;;;;12.27;1.50;;;12.00;99.90;;;;;;5069614;28;20495;-76
2022/09/17 00:37:21;;;;;;;10.02;1.60;;;12.00;99.90;;;;;;5068852;28;20451;-73
2022/09/17 00:39:46;;;;;;;9.73;1.33;;;12.00;99.90;;;;;;5069032;28;20501;-76
2022/09/17 00:42:13;;;;;;;9.37;1.20;;;12.00;99.90;;;;;;5067904;28;20459;-76
2022/09/17 00:44:54;;;;;;;10.60;1.52;;;12.00;99.90;;;;;;5068986;28;20407;-76
2022/09/17 00:47:29;;;;;;;10.38;1.40;;;12.00;99.90;;;;;;5068550;28;20416;-76
2022/09/17 00:50:00;;;;;;;12.25;1.60;;;12.00;99.90;;;;;;5068635;28;21036;-76
2022/09/17 00:52:33;;;;;;;15.13;1.63;;;12.10;99.90;;;;;;5050665;28;20438;-76
2022/09/17 00:55:12;;;;;;;12.60;1.67;;;12.10;99.90;;;;;;5068729;28;20535;-76
2022/09/17 00:57:39;;;;;;;12.80;1.90;;;12.30;99.90;;;;;;5068616;28;20873;-76
2022/09/17 01:00:07;;;;;;;13.23;1.57;;;12.30;99.90;;;;;;5050503;28;20442;-76
2022/09/17 01:02:33;;;;;;;11.80;1.60;;;12.30;99.90;;;;;;5050554;28;20503;-76
2022/09/17 01:04:59;;;;;;;10.43;1.27;;;12.30;99.90;;;;;;5067990;28;20408;-76
2022/09/17 01:07:37;;;;;;;7.77;1.47;;;12.30;99.90;;;;;;5068387;28;21011;-76
2022/09/17 01:10:22;;;;;;;9.48;1.20;;;12.20;99.90;;;;;;5055073;28;20408;-77
2022/09/17 01:13:16;;;;;;;7.18;0.90;;;12.20;99.90;;;;;;5068090;28;21290;-76
2022/09/17 01:16:01;;;;;;;8.93;1.27;;;12.20;99.90;;;;;;5068043;28;20899;-76
2022/09/17 01:18:51;;;;;;;8.95;1.23;;;12.10;99.90;;;;;;5057225;28;20408;-76
2022/09/17 01:21:40;;;;;;;10.15;1.05;;;12.10;99.90;;;;;;5068048;28;20506;-76
2022/09/17 01:24:10;;;;;;;12.07;1.50;;;12.00;99.90;;;;;;5049912;28;20462;-76
2022/09/17 01:27:09;;;;;;;9.25;1.08;;;12.00;99.90;;;;;;5067036;28;20453;-76
2022/09/17 01:29:54;;;;;;;10.52;1.50;;;11.90;99.90;;;;;;5054986;28;20411;-76
2022/09/17 01:32:27;;;;;;;12.50;1.50;;;11.90;99.90;;;;;;5066928;28;20438;-76
2022/09/17 01:34:56;;;;;;;12.00;1.60;;;11.90;99.90;;;;;;5067065;28;20412;-76
2022/09/17 01:37:46;;;;;;;11.40;1.50;;;11.90;99.90;;;;;;5067006;28;20774;-76
2022/09/17 01:40:26;;;;;;;14.90;1.70;;;12.00;99.90;;;;;;5067036;28;20838;-76
2022/09/17 01:43:04;;;;;;;11.80;1.30;;;11.90;99.90;;;;;;5049673;28;20523;-76
2022/09/17 01:46:15;;;;;;;9.80;1.43;;;11.90;99.90;;;;;;5049825;28;20553;-76
2022/09/17 01:48:45;;;;;;;8.70;1.20;;;12.00;99.90;;;;;;5061949;28;20446;-76
2022/09/17 01:51:15;;;;;;;13.25;2.22;;;12.00;99.90;;;;;;5050079;28;20499;-76
2022/09/17 01:53:56;;;;;;;11.50;1.30;;;12.00;99.90;;;;;;5032744;28;20490;-76
2022/09/17 01:56:26;;;;;;;10.00;1.33;;;12.00;99.90;;;;;;5067570;28;20931;-76
2022/09/17 01:59:11;;;;;;;10.35;1.60;;;12.00;99.90;;;;;;5067765;28;20913;-76
2022/09/17 02:01:40;;;;;;;11.30;1.70;;;11.90;99.90;;;;;;5067249;28;20427;-76
2022/09/17 02:04:30;;;;;;;10.27;1.55;;;12.00;99.90;;;;;;5067640;28;20928;-76
2022/09/17 02:07:02;;;;;;;11.45;1.30;;;11.90;99.90;;;;;;5055636;28;20828;-76
2022/09/17 02:09:45;;;;;;;11.15;1.35;;;11.90;99.90;;;;;;5067695;28;20493;-76
2022/09/17 02:12:17;;;;;;;14.52;2.08;;;11.90;99.90;;;;;;5049276;28;20431;-75
2022/09/17 02:14:48;;;;;;;12.27;1.70;;;11.90;99.90;;;;;;5067475;28;20486;-76
2022/09/17 02:17:45;;;;;;;14.88;1.85;;;11.90;99.90;;;;;;5067349;28;20396;-76
2022/09/17 02:20:12;;;;;;;11.63;1.67;;;11.90;99.90;;;;;;5036225;28;20408;-76
2022/09/17 02:22:51;;;;;;;17.85;2.40;;;11.90;99.90;;;;;;5059714;28;20439;-75
2022/09/17 02:25:32;;;;;;;12.40;2.20;;;11.90;99.90;;;;;;5067105;28;20414;-76
2022/09/17 02:28:13;;;;;;;17.00;2.30;;;11.90;99.90;;;;;;5056572;28;20416;-76
2022/09/17 02:30:39;;;;;;;16.15;1.83;;;11.80;99.90;;;;;;5060194;28;20404;-76
2022/09/17 02:33:08;;;;;;;14.18;1.77;;;11.80;99.90;;;;;;5067056;28;20411;-75
2022/09/17 02:35:35;;;;;;;13.30;1.80;;;11.80;99.90;;;;;;5049266;28;20864;-76
2022/09/17 02:38:01;;;;;;;11.23;1.43;;;11.70;99.90;;;;;;5067689;28;20478;-76
2022/09/17 02:40:31;;;;;;;9.38;1.58;;;11.70;99.90;;;;;;5066939;28;20561;-76
2022/09/17 02:42:57;;;;;;;10.40;1.80;;;11.70;99.90;;;;;;5067361;28;20418;-76
2022/09/17 02:45:53;;;;;;;10.88;1.60;;;11.70;99.90;;;;;;5067155;28;20407;-76
2022/09/17 02:48:43;;;;;;;16.02;2.08;;;11.70;99.90;;;;;;5037586;28;20412;-76
2022/09/17 02:51:45;;;;;;;12.43;1.70;;;11.70;99.90;;;;;;5066750;28;20942;-76
2022/09/17 02:54:14;;;;;;;7.25;1.20;;;11.70;99.90;;;;;;5067016;28;20415;-76
2022/09/17 02:56:56;;;;;;;9.40;1.20;;;11.80;99.90;;;;;;5066793;28;20408;-76
2022/09/17 02:59:42;;;;;;;11.00;1.40;;;11.80;99.90;;;;;;5048791;28;20408;-76
2022/09/17 03:02:17;;;;;;;12.40;1.50;;;11.90;99.90;;;;;;5066946;28;20423;-76
2022/09/17 03:04:45;;;;;;;14.13;1.47;;;11.90;99.90;;;;;;5068389;28;20909;-76
2022/09/17 03:07:12;;;;;;;13.40;1.63;;;12.00;99.90;;;;;;5070163;28;20396;-76
2022/09/17 03:09:39;;;;;;;15.32;2.20;;;12.00;99.90;;;;;;5070676;28;20418;-76
2022/09/17 03:12:05;;;;;;;12.43;1.75;;;12.00;99.90;;;;;;5070950;28;20762;-76
2022/09/17 03:14:31;;;;;;;14.32;2.13;;;12.00;99.90;;;;;;5070223;28;20901;-76
2022/09/17 03:16:56;;;;;;;9.80;1.50;;;12.00;99.90;;;;;;5069317;28;20395;-76
2022/09/17 03:19:22;;;;;;;11.00;1.60;;;12.00;99.90;;;;;;5051994;28;20442;-76
2022/09/17 03:21:48;;;;;;;12.10;2.20;;;12.00;99.90;;;;;;5070154;28;20438;-76
2022/09/17 03:24:13;;;;;;;13.90;1.73;;;12.00;99.90;;;;;;5051494;28;20420;-76
2022/09/17 03:26:39;;;;;;;9.35;1.23;;;12.00;99.90;;;;;;5061523;28;20414;-76
2022/09/17 03:29:05;;;;;;;13.18;1.52;;;11.90;99.90;;;;;;5070347;28;20932;-76
2022/09/17 03:31:31;;;;;;;9.87;1.47;;;11.90;99.90;;;;;;5070232;28;20403;-76
2022/09/17 03:33:57;;;;;;;9.73;1.10;;;11.80;99.90;;;;;;5070328;28;20407;-76
2022/09/17 03:36:23;;;;;;;10.30;1.70;;;11.80;99.90;;;;;;5070252;28;20414;-76
2022/09/17 03:38:54;;;;;;;13.32;1.40;;;11.80;99.90;;;;;;5070024;28;20400;-76
2022/09/17 03:41:19;;;;;;;9.73;1.40;;;11.80;99.90;;;;;;5069899;28;20428;-76
2022/09/17 03:43:45;;;;;;;8.77;1.20;;;11.70;99.90;;;;;;5070004;28;20408;-75
2022/09/17 03:46:10;;;;;;;10.53;1.33;;;11.70;99.90;;;;;;5035795;28;20408;-76
2022/09/17 03:48:38;;;;;;;12.65;1.20;;;11.70;99.90;;;;;;5069466;28;20407;-76
2022/09/17 03:51:04;;;;;;;10.03;1.20;;;11.70;99.90;;;;;;5069580;28;20396;-76
2022/09/17 03:53:31;;;;;;;9.75;1.20;;;11.70;99.90;;;;;;5051806;28;20508;-76
2022/09/17 03:56:01;;;;;;;8.60;1.15;;;11.70;99.90;;;;;;5069982;28;20406;-76
2022/09/17 03:58:28;;;;;;;11.90;1.40;;;11.70;99.90;;;;;;5069603;28;20453;-76
2022/09/17 04:00:56;;;;;;;9.90;1.43;;;11.70;99.90;;;;;;5069496;28;20423;-76
2022/09/17 04:03:23;;;;;;;8.55;1.27;;;11.80;99.90;;;;;;5051743;28;20495;-76
2022/09/17 04:05:49;;;;;;;12.23;1.50;;;11.80;99.90;;;;;;5069500;28;20396;-76
2022/09/17 04:08:14;;;;;;;10.40;1.65;;;11.80;99.90;;;;;;5069913;28;20766;-76
2022/09/17 04:10:40;;;;;;;11.77;1.50;;;11.80;99.90;;;;;;5069231;28;20404;-76
2022/09/17 04:13:06;;;;;;;12.50;1.70;;;11.80;99.90;;;;;;5051566;28;20400;-76
2022/09/17 04:15:31;;;;;;;12.43;1.45;;;11.90;99.90;;;;;;5051040;28;20500;-76
2022/09/17 04:17:57;;;;;;;14.83;1.90;;;11.90;99.90;;;;;;5069361;28;20392;-77
2022/09/17 04:20:23;;;;;;;11.20;1.90;;;11.90;99.90;;;;;;5051160;28;20407;-76
2022/09/17 04:22:49;;;;;;;10.18;1.30;;;11.90;99.90;;;;;;5069541;28;20478;-77
2022/09/17 04:25:16;;;;;;;10.27;1.33;;;11.90;99.90;;;;;;5069178;28;20391;-77
2022/09/17 04:27:42;;;;;;;11.85;1.40;;;11.90;99.90;;;;;;5068822;28;20408;-76
2022/09/17 04:30:09;;;;;;;11.15;1.58;;;11.80;99.90;;;;;;5067516;28;20404;-76
2022/09/17 04:32:34;;;;;;;9.80;1.35;;;11.90;99.90;;;;;;5068830;28;20474;-76
2022/09/17 04:35:00;;;;;;;6.47;0.90;;;11.90;99.90;;;;;;5068691;28;20877;-76
2022/09/17 04:37:26;;;;;;;7.43;0.80;;;11.60;99.90;;;;;;5068139;28;20452;-76
2022/09/17 04:39:51;;;;;;;11.32;1.35;;;11.40;99.90;;;;;;5046705;28;20413;-77
2022/09/17 04:42:17;;;;;;;11.27;1.23;;;11.20;99.90;;;;;;5048395;28;20800;-77
2022/09/17 04:44:43;;;;;;;9.43;1.20;;;11.00;99.90;;;;;;5047899;28;20496;-77
2022/09/17 04:47:08;;;;;;;10.87;1.23;;;10.90;99.90;;;;;;5051709;28;20405;-76
2022/09/17 04:49:34;;;;;;;11.90;1.50;;;10.90;99.90;;;;;;5046819;28;20401;-76
2022/09/17 04:52:00;;;;;;;12.10;2.10;;;10.80;99.90;;;;;;5063310;28;20444;-76
2022/09/17 04:54:25;;;;;;;13.50;1.83;;;10.70;99.90;;;;;;5065261;28;20394;-76
2022/09/17 04:56:51;;;;;;;16.07;2.53;;;10.70;99.90;;;;;;5053494;28;20405;-77
2022/09/17 04:59:17;;;;;;;13.95;1.73;;;10.60;99.90;;;;;;5049085;28;20823;-77
2022/09/17 05:01:43;;;;;;;13.05;1.77;;;10.60;99.90;;;;;;5047330;28;20441;-77
2022/09/17 05:04:09;;;;;;;12.73;1.83;;;10.70;99.90;;;;;;5049168;28;20394;-76
2022/09/17 05:06:34;;;;;;;17.48;1.90;;;10.70;99.90;;;;;;5049095;28;20409;-76
2022/09/17 05:09:01;;;;;;;11.43;1.50;;;10.70;99.90;;;;;;5048533;28;20855;-76
2022/09/17 05:11:27;;;;;;;10.65;1.70;;;10.70;99.90;;;;;;5047306;28;20414;-76
2022/09/17 05:13:53;;;;;;;13.00;1.60;;;10.70;99.90;;;;;;5047418;28;20417;-76
2022/09/17 05:16:19;;;;;;;20.05;2.15;;;10.70;99.90;;;;;;5049720;28;20500;-77
2022/09/17 05:18:45;;;;;;;15.10;2.15;;;10.70;99.90;;;;;;5063657;28;20474;-76
2022/09/17 05:21:11;;;;;;;16.58;1.80;;;10.70;99.90;;;;;;5064704;28;20451;-76
2022/09/17 05:23:36;;;;;;;16.03;1.90;;;10.70;99.90;;;;;;5064127;28;20390;-75
2022/09/17 05:26:02;;;;;;;14.95;2.60;;;10.70;99.90;;;;;;5058742;28;20394;-77
2022/09/17 05:28:28;;;;;;;12.40;2.03;;;10.60;99.90;;;;;;5048821;28;20409;-77
2022/09/17 05:30:57;;;;;;;12.80;1.27;;;10.60;99.90;;;;;;5049328;28;20484;-77
2022/09/17 05:33:22;;;;;;;7.43;1.30;;;10.60;99.90;;;;;;5048772;28;20405;-76
2022/09/17 05:35:48;;;;;;;13.63;1.53;;;10.60;99.90;;;;;;5047054;28;21022;-76
2022/09/17 05:38:13;;;;;;;12.73;1.42;;;10.60;99.90;;;;;;5048758;28;20500;-77
2022/09/17 05:40:39;;;;;;;12.17;1.23;;;10.60;99.90;;;;;;5047194;28;20409;-77
2022/09/17 05:43:06;;;;;;;12.38;1.80;;;10.60;99.90;;;;;;5048403;28;20454;-77
2022/09/17 05:45:33;;;;;;;9.98;1.40;;;10.70;99.90;;;;;;5047958;28;20398;-77
2022/09/17 05:48:00;;;;;;;12.50;1.97;;;10.70;99.90;;;;;;5048363;28;20417;-76
2022/09/17 05:50:28;;;;;;;12.07;1.40;;;10.70;99.90;;;;;;5048471;28;20412;-77
2022/09/17 05:52:53;;;;;;;9.40;1.10;;;10.80;99.90;;;;;;5048072;28;20518;-74
2022/09/17 05:55:21;;;;;;;12.02;1.40;;;10.80;99.90;;;;;;5047659;28;20401;-76
2022/09/17 05:57:47;;;;;;;14.68;1.50;;;10.80;99.90;;;;;;5047298;28;20420;-76
2022/09/17 06:00:13;;;;;;;12.88;1.70;;;10.90;99.90;;;;;;5048364;28;20397;-76
2022/09/17 06:02:39;;;;;;;12.55;1.73;;;10.90;99.90;;;;;;5047924;28;20421;-75
2022/09/17 06:05:06;;;;;;;11.27;2.10;;;10.90;99.90;;;;;;5048195;28;20931;-75
2022/09/17 06:07:35;;;;;;;11.45;2.20;;;10.90;99.90;;;;;;5047748;28;20409;-75
2022/09/17 06:10:02;;;;;;;11.23;1.73;;;10.90;99.90;;;;;;5047777;28;20432;-76
2022/09/17 06:12:27;;;;;;;9.70;0.80;;;11.00;99.90;;;;;;5046694;28;20397;-76
2022/09/17 06:14:53;;;;;;;11.73;1.90;;;11.10;99.90;;;;;;5048044;28;20404;-76
2022/09/17 06:17:18;;;;;;;8.90;1.00;;;11.20;99.90;;;;;;5047386;28;20401;-76
2022/09/17 06:19:44;;;;;;;12.10;1.50;;;11.40;99.90;;;;;;5046224;28;20489;-76
2022/09/17 06:22:10;;;;;;;7.80;1.40;;;11.50;99.90;;;;;;5047425;28;20520;-76
2022/09/17 06:24:35;;;;;;;14.30;2.23;;;11.70;99.90;;;;;;5047692;28;20756;-76
2022/09/17 06:27:01;;;;;;;11.90;1.40;;;11.90;99.90;;;;;;5046069;28;20459;-76
2022/09/17 06:29:26;;;;;;;11.77;1.60;;;11.90;99.90;;;;;;5047142;28;20401;-76
2022/09/17 06:31:52;;;;;;;11.77;2.57;;;11.90;99.90;;;;;;5046905;28;20479;-76
2022/09/17 06:34:18;;;;;;;12.50;1.75;;;11.90;99.90;;;;;;5046183;28;20412;-76
2022/09/17 06:36:44;;;;;;;10.50;1.45;;;12.00;99.90;;;;;;5045971;28;20421;-77
2022/09/17 06:39:10;;;;;;;12.57;1.20;;;12.10;99.90;;;;;;5048540;28;21172;-77
2022/09/17 06:41:37;;;;;;;8.90;1.53;;;12.10;99.90;;;;;;5070679;28;20518;-77
2022/09/17 06:44:03;;;;;;;8.50;1.55;;;12.10;99.90;;;;;;5070583;28;20804;-77
2022/09/17 06:46:29;;;;;;;10.02;2.00;;;12.10;99.90;;;;;;5052164;28;20412;-77
2022/09/17 06:48:55;;;;;;;11.35;1.10;;;12.10;99.90;;;;;;5071197;28;20400;-77
2022/09/17 06:51:21;;;;;;;10.27;1.40;;;12.20;99.90;;;;;;5071104;28;20396;-77
2022/09/17 06:53:47;;;;;;;6.65;0.85;;;12.10;99.90;;;;;;5070591;28;20463;-76
2022/09/17 06:56:14;;;;;;;11.38;1.52;;;12.10;99.90;;;;;;5070410;28;20914;-76
2022/09/17 06:58:43;;;;;;;10.20;1.27;;;12.00;99.90;;;;;;5070565;28;20912;-77
2022/09/17 07:01:10;;;;;;;9.38;1.42;;;11.90;99.90;;;;;;5053181;28;20926;-76
2022/09/17 07:03:36;;;;;;;12.57;1.67;;;12.00;99.90;;;;;;5070619;28;20901;-76
2022/09/17 07:06:07;;;;;;;9.00;1.30;;;12.00;99.90;;;;;;5053099;28;20407;-76
2022/09/17 07:08:33;;;;;;;11.77;1.20;;;12.10;99.90;;;;;;5070154;28;20403;-76
2022/09/17 07:10:59;;;;;;;10.55;1.10;;;12.10;99.90;;;;;;5070740;28;20400;-76
2022/09/17 07:13:25;;;;;;;8.00;1.30;;;12.20;99.90;;;;;;5066579;28;20419;-76
2022/09/17 07:15:55;;;;;;;12.13;1.10;;;12.30;99.90;;;;;;5066171;28;20439;-76
2022/09/17 07:18:22;;;;;;;9.50;1.48;;;12.40;99.90;;;;;;5051191;28;20503;-76
2022/09/17 07:20:55;;;;;;;10.02;1.17;;;12.50;99.90;;;;;;5065049;28;20921;-75
2022/09/17 07:23:23;;;;;;;9.73;1.40;;;12.60;99.90;;;;;;5069099;28;20860;-75
2022/09/17 07:25:57;;;;;;;11.02;1.63;;;12.80;99.90;;;;;;5051771;28;20557;-76
2022/09/17 07:28:23;;;;;;;11.95;1.70;;;13.00;99.90;;;;;;5061225;28;20408;-76
2022/09/17 07:30:50;;;;;;;9.30;1.60;;;13.20;99.90;;;;;;5068897;28;20400;-76
2022/09/17 07:33:17;;;;;;;7.55;1.05;;;13.40;99.90;;;;;;5051754;28;20410;-76
2022/09/17 07:35:52;;;;;;;9.85;1.48;;;13.30;99.80;;;;;;5068982;28;20404;-76
2022/09/17 07:38:18;;;;;;;9.03;1.30;;;13.20;99.90;;;;;;5041082;28;20767;-76
2022/09/17 07:40:43;;;;;;;10.52;1.25;;;13.00;99.90;;;;;;5064305;28;20408;-77
2022/09/17 07:43:09;;;;;;;9.43;1.30;;;12.80;99.90;;;;;;5069218;28;20510;-76
2022/09/17 07:45:34;;;;;;;4.40;0.60;;;12.70;99.90;;;;;;5050859;28;20415;-76
2022/09/17 07:48:00;;;;;;;3.23;0.33;;;12.60;99.90;;;;;;5068825;28;20403;-76
2022/09/17 07:50:26;;;;;;;5.25;0.60;;;12.50;99.90;;;;;;5056852;28;20388;-76
2022/09/17 07:52:51;;;;;;;6.67;0.80;;;12.30;99.90;;;;;;5067408;28;20493;-75
2022/09/17 07:55:17;;;;;;;6.38;1.10;;;12.30;99.90;;;;;;5067471;28;21121;-76
2022/09/17 07:57:42;;;;;;;4.53;0.53;;;12.30;99.90;;;;;;5063492;28;20502;-76
2022/09/17 08:00:09;;;;;;;5.65;0.77;;;12.30;99.90;;;;;;5061408;28;20409;-76
2022/09/17 08:02:34;;;;;;;6.45;0.70;;;12.30;99.90;;;;;;5048536;28;20427;-76
2022/09/17 08:05:00;;;;;;;4.70;0.53;;;12.30;99.90;;;;;;5065497;28;20411;-75
2022/09/17 08:07:25;;;;;;;4.70;0.70;;;12.20;99.90;;;;;;5050800;28;20423;-76
2022/09/17 08:09:51;;;;;;;4.90;0.50;;;12.20;99.90;;;;;;5069645;28;20491;-76
2022/09/17 08:12:18;;;;;;;4.72;0.50;;;12.20;99.90;;;;;;5049852;28;20921;-76
2022/09/17 08:14:44;;;;;;;3.83;0.50;;;12.10;99.90;;;;;;5034307;28;20411;-77
2022/09/17 08:17:09;;;;;;;4.27;0.50;;;12.10;99.90;;;;;;5068203;28;20411;-77
2022/09/17 08:19:35;;;;;;;6.85;1.08;;;12.10;99.90;;;;;;5066252;28;21109;-77
2022/09/17 08:22:00;;;;;;;5.10;0.50;;;12.10;99.90;;;;;;5049926;28;20460;-77
2022/09/17 08:24:26;;;;;;;6.55;0.60;;;12.20;99.90;;;;;;5050352;28;20963;-77
2022/09/17 08:26:52;;;;;;;9.00;1.13;;;12.20;99.90;;;;;;5069064;28;20400;-76
2022/09/17 08:29:18;;;;;;;6.78;0.80;;;12.20;99.90;;;;;;5066988;28;20477;-77
2022/09/17 08:31:43;;;;;;;9.30;1.00;;;12.20;99.90;;;;;;5067050;28;20473;-77
2022/09/17 08:34:09;;;;;;;8.38;1.08;;;12.40;99.90;;;;;;5068827;28;20877;-77
2022/09/17 08:36:35;;;;;;;11.95;1.63;;;12.60;99.90;;;;;;5062157;28;20414;-77
2022/09/17 08:39:01;;;;;;;6.70;1.33;;;12.80;99.90;;;;;;5060238;28;20447;-76
2022/09/17 08:41:39;;;;;;;11.90;1.03;;;13.00;99.90;;;;;;5067746;28;20438;-76
2022/09/17 08:44:23;;;;;;;13.65;1.80;;;13.20;99.90;;;;;;5068854;28;20416;-76
2022/09/17 08:47:13;;;;;;;7.88;1.20;;;13.40;99.90;;;;;;5068112;28;20774;-76
2022/09/17 08:49:46;;;;;;;9.98;1.15;;;13.60;99.90;;;;;;4999519;28;20467;-77
2022/09/17 08:52:36;;;;;;;9.43;0.90;;;13.80;99.90;;;;;;5050642;28;20941;-76
2022/09/17 08:55:22;;;;;;;7.03;1.20;;;14.00;99.90;;;;;;5068413;28;20469;-76
2022/09/17 08:58:00;;;;;;;7.55;1.08;;;14.30;99.70;;;;;;5067372;28;20434;-76
2022/09/17 09:00:37;;;;;;;8.45;1.48;;;14.60;99.10;;;;;;5068513;28;20439;-76
2022/09/17 09:03:12;;;;;;;11.32;1.90;;;14.70;98.50;;;;;;5065965;28;20890;-76
2022/09/17 09:05:52;;;;;;;8.07;1.35;;;14.70;98.80;;;;;;5049699;28;20439;-76
2022/09/17 09:08:34;;;;;;;10.43;1.25;;;14.70;99.20;;;;;;5067721;28;20418;-76
2022/09/17 09:11:03;;;;;;;11.40;1.50;;;14.70;99.20;;;;;;5068255;28;20416;-76
2022/09/17 09:13:41;;;;;;;8.18;0.93;;;15.00;99.80;;;;;;5068009;28;20400;-76
2022/09/17 09:16:29;;;;;;;7.85;0.90;;;15.80;98.10;;;;;;5067209;28;20415;-77
2022/09/17 09:19:05;;;;;;;10.48;1.02;;;16.70;97.20;;;;;;5066743;28;20419;-77
2022/09/17 09:21:55;;;;;;;5.68;0.93;;;17.40;95.60;;;;;;5068206;28;20439;-78
2022/09/17 09:24:20;;;;;;;9.30;1.42;;;18.00;94.40;;;;;;5066491;28;20420;-76
2022/09/17 09:27:01;;;;;;;10.73;1.30;;;18.40;92.90;;;;;;5067287;28;20925;-77
2022/09/17 09:29:44;;;;;;;11.07;1.35;;;18.70;92.10;;;;;;5065630;28;20497;-77
2022/09/17 09:32:34;;;;;;;8.00;1.42;;;19.10;91.60;;;;;;5066697;28;20423;-77
2022/09/17 09:35:10;;;;;;;6.00;0.80;;;19.40;90.30;;;;;;5066186;28;20428;-76
2022/09/17 09:37:41;;;;;;;9.10;1.10;;;19.70;88.00;;;;;;5055185;28;20406;-76
2022/09/17 09:40:35;;;;;;;8.23;1.20;;;20.00;88.30;;;;;;5066479;28;20489;-76
2022/09/17 09:43:10;;;;;;;7.47;1.20;;;20.20;85.10;;;;;;5060872;28;20419;-77
2022/09/17 09:45:58;;;;;;;9.32;1.35;;;20.50;83.80;;;;;;5059818;28;20453;-77
2022/09/17 09:48:56;;;;;;;6.60;1.13;;;20.60;86.30;;;;;;5064435;28;20981;-78
2022/09/17 09:51:48;;;;;;;9.47;1.20;;;20.90;84.50;;;;;;5027972;28;21595;-77
2022/09/17 09:54:14;;;;;;;10.27;1.65;;;20.70;80.40;;;;;;5057933;28;20435;-77
2022/09/17 09:56:57;;;;;;;7.65;1.33;;;20.40;81.70;;;;;;5067178;28;20541;-77
2022/09/17 09:59:23;;;;;;;8.10;1.17;;;20.60;80.40;;;;;;5066584;28;20490;-77
2022/09/17 10:01:49;;;;;;;6.37;1.27;;;20.70;78.10;;;;;;5066657;28;20439;-77
2022/09/17 10:06:31;;;;;;;10.07;1.50;;;20.90;71.10;;;;;;5082138;28;20390;-77
2022/09/17 10:08:56;;;;;;;7.60;1.38;;;20.90;70.80;;;;;;5069241;28;20435;-77
2022/09/17 10:11:25;;;;;;;8.47;1.10;;;21.10;73.80;;;;;;5063227;28;20412;-76
2022/09/17 10:13:50;;;;;;;7.80;1.40;;;21.10;71.50;;;;;;5063864;28;20416;-76
2022/09/17 10:16:23;;;;;;;5.65;0.90;;;21.10;73.30;;;;;;5062687;28;20527;-76
2022/09/17 10:18:57;;;;;;;8.65;1.25;;;21.30;71.10;;;;;;5039697;28;20430;-76
2022/09/17 10:21:31;;;;;;;8.98;1.27;;;21.40;73.10;;;;;;5047763;28;20453;-76
2022/09/17 10:23:57;;;;;;;9.23;1.35;;;21.80;74.00;;;;;;5045309;28;20422;-76
2022/09/17 10:26:27;;;;;;;9.48;1.38;;;21.90;73.00;;;;;;5041854;28;20951;-76
2022/09/17 10:28:57;;;;;;;9.57;1.40;;;21.70;74.00;;;;;;5042857;28;20948;-76
2022/09/17 10:31:23;;;;;;;8.00;1.20;;;21.00;73.60;;;;;;5046841;28;20940;-76
2022/09/17 10:33:55;;;;;;;6.95;1.10;;;19.80;76.30;;;;;;5043380;28;20434;-76
2022/09/17 10:36:42;;;;;;;8.23;1.42;;;18.90;78.40;;;;;;5041230;28;20410;-75
2022/09/17 10:39:47;;;;;;;8.35;1.23;;;18.20;80.90;;;;;;5043662;28;20758;-76
2022/09/17 10:42:19;;;;;;;6.93;1.05;;;18.20;82.90;;;;;;5027598;28;20438;-77
2022/09/17 10:44:53;;;;;;;8.63;1.42;;;19.20;83.90;;;;;;5044239;28;20465;-77
2022/09/17 10:47:19;;;;;;;7.15;0.90;;;20.10;82.20;;;;;;5042176;28;20507;-76
2022/09/17 10:49:48;;;;;;;8.73;1.07;;;20.80;78.90;;;;;;5042912;28;20916;-77
2022/09/17 10:52:24;;;;;;;9.25;1.20;;;21.40;80.10;;;;;;5044314;28;20417;-77
2022/09/17 10:55:06;;;;;;;11.35;1.50;;;21.90;77.10;;;;;;5043952;28;20406;-77
2022/09/17 10:57:46;;;;;;;10.82;1.60;;;22.00;74.80;;;;;;5044325;28;20453;-77
2022/09/17 11:00:15;;;;;;;8.77;1.08;;;21.90;73.20;;;;;;5044410;28;20425;-76
2022/09/17 11:03:07;;;;;;;8.57;1.20;;;21.90;73.90;;;;;;5043960;28;20836;-76
2022/09/17 11:05:58;;;;;;;7.47;1.17;;;22.30;73.60;;;;;;5054355;28;20434;-77
2022/09/17 11:08:47;;;;;;;8.77;1.45;;;22.50;71.30;;;;;;5071169;28;20442;-76
2022/09/17 11:11:50;;;;;;;5.07;0.90;;;22.50;69.30;;;;;;5040824;28;20533;-76
2022/09/17 11:14:30;;;;;;;6.18;0.82;;;22.60;68.40;;;;;;5049838;28;20962;-77
2022/09/17 11:17:01;;;;;;;8.50;1.33;;;22.90;70.50;;;;;;5034645;28;20864;-76
2022/09/17 11:19:44;;;;;;;6.97;1.13;;;23.20;69.90;;;;;;5031077;28;20506;-76
2022/09/17 11:22:37;;;;;;;7.07;1.15;;;23.30;66.50;;;;;;5031580;28;20422;-76
2022/09/17 11:25:23;;;;;;;7.15;0.90;;;23.30;67.70;;;;;;5014049;28;20435;-76
2022/09/17 11:27:55;;;;;;;6.43;1.05;;;23.30;67.80;;;;;;5030600;28;20423;-76
2022/09/17 11:30:23;;;;;;;6.20;1.08;;;23.00;66.90;;;;;;5031396;28;20434;-76
2022/09/17 11:33:07;;;;;;;8.07;1.48;;;22.80;67.70;;;;;;5034043;28;20415;-76
2022/09/17 11:36:00;;;;;;;8.27;0.93;;;22.90;66.10;;;;;;5034142;28;20419;-75
2022/09/17 11:38:44;;;;;;;8.60;1.27;;;23.00;63.30;;;;;;5028450;28;20423;-76
2022/09/17 11:41:21;;;;;;;8.53;1.40;;;23.10;64.10;;;;;;5049957;28;20982;-76
2022/09/17 11:44:01;;;;;;;6.18;1.27;;;23.20;65.20;;;;;;5050929;28;20482;-75
2022/09/17 11:46:36;;;;;;;9.45;1.30;;;22.60;65.70;;;;;;5050764;28;20469;-76
2022/09/17 11:49:10;;;;;;;10.17;1.53;;;21.70;65.70;;;;;;5044423;28;20418;-76
2022/09/17 11:51:41;;;;;;;5.10;0.97;;;20.90;64.60;;;;;;5032051;28;20499;-76
2022/09/17 11:54:16;;;;;;;7.70;1.25;;;20.30;67.10;;;;;;5035919;28;21016;-76
2022/09/17 11:56:45;;;;;;;5.57;0.80;;;20.30;65.40;;;;;;5040262;28;20415;-76
2022/09/17 11:59:16;;;;;;;5.45;1.13;;;20.40;60.60;;;;;;5032254;28;20785;-76
2022/09/17 12:01:56;;;;;;;6.60;1.00;;;20.60;65.30;;;;;;5030515;28;20541;-76
2022/09/17 12:04:41;;;;;;;5.15;0.75;;;21.20;65.20;;;;;;5033958;28;20426;-76
2022/09/17 12:07:34;;;;;;;7.63;1.10;;;21.70;64.50;;;;;;5051249;28;20813;-76
2022/09/17 12:10:28;;;;;;;8.57;1.20;;;21.80;63.90;;;;;;5050737;28;20413;-76
2022/09/17 12:13:15;;;;;;;9.02;1.27;;;22.30;62.30;;;;;;5050420;28;20409;-76
2022/09/17 12:15:45;;;;;;;5.20;0.70;;;22.80;64.20;;;;;;5049754;28;20413;-76
2022/09/17 12:18:40;;;;;;;9.37;1.37;;;22.60;63.50;;;;;;5049526;28;21040;-76
2022/09/17 12:21:08;;;;;;;8.45;1.10;;;22.00;63.90;;;;;;5031737;28;20900;-76
2022/09/17 12:23:56;;;;;;;7.45;1.25;;;22.20;65.90;;;;;;5031894;28;20444;-77
2022/09/17 12:26:50;;;;;;;10.38;1.42;;;22.30;64.20;;;;;;5037620;28;20461;-76
2022/09/17 12:29:55;;;;;;;10.02;1.80;;;22.10;66.00;;;;;;5006192;28;20761;-76
2022/09/17 12:32:59;;;;;;;7.30;1.10;;;21.70;67.10;;;;;;4948768;29;20455;-76
2022/09/17 12:35:40;;;;;;;6.65;1.15;;;21.30;66.90;;;;;;4948951;29;20417;-76
2022/09/17 12:38:24;;;;;;;8.32;1.52;;;20.60;68.40;;;;;;5032158;28;20425;-76
2022/09/17 12:41:14;;;;;;;7.00;1.20;;;20.00;68.30;;;;;;5037947;28;20409;-76
2022/09/17 12:43:59;;;;;;;10.45;1.50;;;19.60;69.80;;;;;;5043810;28;20417;-76
2022/09/17 12:47:00;;;;;;;8.10;1.10;;;19.30;70.00;;;;;;5048902;28;20429;-76
2022/09/17 12:49:53;;;;;;;8.13;1.67;;;19.20;70.30;;;;;;5040510;28;20772;-76
2022/09/17 12:52:37;;;;;;;8.90;1.15;;;19.20;71.80;;;;;;5020736;28;20567;-76
2022/09/17 12:55:11;;;;;;;7.90;1.20;;;20.30;71.50;;;;;;5047605;28;20434;-76
2022/09/17 12:57:46;;;;;;;6.70;0.88;;;21.20;69.60;;;;;;5013704;28;20433;-76
2022/09/17 13:00:13;;;;;;;7.55;1.15;;;21.90;65.30;;;;;;5048759;28;20420;-76
2022/09/17 13:02:39;;;;;;;7.53;1.00;;;22.30;63.80;;;;;;5045170;28;20471;-76
2022/09/17 13:05:23;;;;;;;10.40;1.42;;;22.60;62.40;;;;;;5048411;28;20433;-76
2022/09/17 13:08:07;;;;;;;9.30;1.52;;;22.70;64.40;;;;;;5053247;28;20427;-77
2022/09/17 13:10:55;;;;;;;7.80;1.87;;;22.60;64.70;;;;;;5035283;28;20429;-76
2022/09/17 13:13:40;;;;;;;5.55;0.88;;;22.90;64.60;;;;;;5028745;28;20492;-76